Time;durP1;ratioP1;P1;durP2;ratioP2;P2;SDS_P1;SDS_P2;PMS_P1;PMS_P2;Temp;Humidity;BMP_temperature;BMP_pressure;BME280_temperature;BME280_humidity;BME280_pressure;Samples;Min_cycle;Max_cycle;Signal;HPM_P1;HPM_P2
2022/02/06 00:01:03;;;;;;;;;;;;;;;1.33;70.49;101216.31;5101668;27;19985;-65
2022/02/06 00:03:31;;;;;;;;;;;;;;;1.34;70.77;101216.25;5113773;27;20684;-65
2022/02/06 00:05:56;;;;;;;;;;;;;;;1.37;69.99;101221.44;5118060;27;19912;-65
2022/02/06 00:08:22;;;;;;;;;;;;;;;1.43;70.55;101228.25;5095319;28;19981;-66
2022/02/06 00:10:47;;;;;;;;;;;;;;;1.42;70.11;101222.09;5098546;27;20013;-65
2022/02/06 00:13:12;;;;;;;;;;;;;;;1.50;69.98;101222.72;5095702;27;19922;-66
2022/02/06 00:15:38;;;;;;;;;;;;;;;1.47;69.27;101216.66;5092536;28;19920;-65
2022/02/06 00:18:03;;;;;;;;;;;;;;;1.50;69.66;101221.84;5114629;27;19920;-65
2022/02/06 00:20:50;;;;;;;;;;;;;;;1.51;69.29;101220.91;5108223;28;19920;-65
2022/02/06 00:23:18;;;;;;;;;;;;;;;1.50;69.54;101221.84;5102028;28;19916;-66
2022/02/06 00:26:08;;;;;;;;;;;;;;;1.52;69.00;101226.13;5107937;28;19999;-65
2022/02/06 00:31:11;;;;;;;;;;;;;;;1.51;69.29;101237.63;5089081;28;19922;-65
2022/02/06 00:33:45;;;;;;;;;;;;;;;1.48;69.23;101229.81;5099136;28;20376;-65
2022/02/06 00:41:22;;;;;;;;;;;;;;;1.42;68.64;101223.91;5095427;28;19923;-65
2022/02/06 00:43:47;;;;;;;;;;;;;;;1.38;68.49;101220.50;5092232;28;20413;-66
2022/02/06 00:46:15;;;;;;;;;;;;;;;1.34;68.66;101218.03;5095367;28;19912;-65
2022/02/06 00:48:44;;;;;;;;;;;;;;;1.32;68.58;101217.22;5098533;28;19999;-65
2022/02/06 00:51:17;;;;;;;;;;;;;;;1.30;68.70;101214.66;5093659;28;19927;-66
2022/02/06 00:53:43;;;;;;;;;;;;;;;1.27;68.95;101212.09;5094048;28;20408;-65
2022/02/06 00:56:08;;;;;;;;;;;;;;;1.26;68.43;101218.28;5092921;28;20006;-67
2022/02/06 00:58:34;;;;;;;;;;;;;;;1.23;68.41;101215.75;5102050;28;19923;-65
2022/02/06 01:01:00;;;;;;;;;;;;;;;1.20;68.38;101213.25;5095534;28;19920;-65
2022/02/06 01:03:25;;;;;;;;;;;;;;;1.18;68.99;101212.44;5094144;28;20371;-66
2022/02/06 01:05:51;;;;;;;;;;;;;;;1.18;69.00;101220.34;5100355;28;20000;-65
2022/02/06 01:08:16;;;;;;;;;;;;;;;1.18;68.91;101215.06;5092998;28;19916;-65
2022/02/06 01:10:41;;;;;;;;;;;;;;;1.16;68.80;101208.97;5097859;28;19912;-65
2022/02/06 01:13:19;;;;;;;;;;;;;;;1.16;69.04;101208.13;5103576;28;19915;-65
2022/02/06 01:16:23;;;;;;;;;;;;;;;1.15;68.77;101207.25;5095398;28;19918;-65
2022/02/06 01:18:41;;;;;;;;;;;;;;;1.12;68.53;101190.63;5094839;28;19965;-65
2022/02/06 01:21:22;;;;;;;;;;;;;;;1.08;69.05;101195.19;5108711;28;20613;-65
2022/02/06 01:23:58;;;;;;;;;;;;;;;1.07;68.48;101187.31;5093512;28;20487;-65
2022/02/06 01:26:40;;;;;;;;;;;;;;;1.09;68.84;101193.38;5101235;28;19990;-65
2022/02/06 01:29:16;;;;;;;;;;;;;;;1.06;68.75;101188.25;5099819;28;19920;-65
2022/02/06 01:32:00;;;;;;;;;;;;;;;1.01;68.75;101193.69;5106537;28;19915;-65
2022/02/06 01:34:51;;;;;;;;;;;;;;;1.01;68.59;101193.69;5090563;28;19915;-65
2022/02/06 01:37:37;;;;;;;;;;;;;;;0.94;69.29;101189.53;5098063;28;19996;-65
2022/02/06 01:42:33;;;;;;;;;;;;;;;0.90;68.98;101174.69;5112318;28;20072;-65
2022/02/06 02:01:23;;;;;;;;;;;;;;;0.79;69.26;101154.84;5103157;28;20372;-65
2022/02/06 02:19:28;;;;;;;;;;;;;;;0.72;69.52;101129.59;5092117;28;19923;-65
2022/02/06 02:22:17;;;;;;;;;;;;;;;0.70;69.20;101131.41;5097860;27;19968;-65
2022/02/06 02:46:25;;;;;;;;;;;;;;;0.63;69.11;101129.91;5099830;28;19916;-67
2022/02/06 02:48:51;;;;;;;;;;;;;;;0.60;69.47;101127.38;5096386;28;19982;-67
2022/02/06 02:51:19;;;;;;;;;;;;;;;0.56;69.41;101129.25;5097371;28;20489;-66
2022/02/06 02:53:53;;;;;;;;;;;;;;;0.57;69.25;101135.38;5096192;28;20018;-67
2022/02/06 02:59:35;;;;;;;;;;;;;;;0.55;69.10;101135.44;5081989;28;19918;-67
2022/02/06 03:02:02;;;;;;;;;;;;;;;0.54;69.05;101132.88;5101068;28;19919;-66
2022/02/06 03:04:27;;;;;;;;;;;;;;;0.57;68.61;101149.44;5101215;28;19918;-66
2022/02/06 03:06:53;;;;;;;;;;;;;;;0.57;69.26;101140.66;5106186;28;19916;-67
2022/02/06 03:09:20;;;;;;;;;;;;;;;0.54;68.75;101136.34;5090465;28;19969;-67
2022/02/06 03:11:45;;;;;;;;;;;;;;;0.53;68.96;101128.50;5098691;28;19920;-67
2022/02/06 03:14:16;;;;;;;;;;;;;;;0.52;68.43;101130.28;5090192;28;19923;-67
2022/02/06 03:16:50;;;;;;;;;;;;;;;0.53;68.84;101123.22;5092961;28;19999;-66
2022/02/06 03:19:19;;;;;;;;;;;;;;;0.50;69.03;101120.69;5090173;28;19955;-67
2022/02/06 03:21:45;;;;;;;;;;;;;;;0.52;68.84;101125.00;5090606;27;19923;-67
2022/02/06 03:26:43;;;;;;;;;;;;;;;0.52;68.67;101116.22;5099964;28;19958;-66
2022/02/06 03:29:08;;;;;;;;;;;;;;;0.53;68.85;101121.44;5110095;28;19951;-66
2022/02/06 03:31:33;;;;;;;;;;;;;;;0.53;68.86;101115.28;5104283;28;19916;-66
2022/02/06 03:33:58;;;;;;;;;;;;;;;0.53;68.64;101116.16;5097386;28;19924;-66
2022/02/06 03:36:24;;;;;;;;;;;;;;;0.53;68.91;101110.03;5092556;28;19915;-66
2022/02/06 03:38:52;;;;;;;;;;;;;;;0.56;68.42;101123.97;5091876;28;19923;-65
2022/02/06 03:41:18;;;;;;;;;;;;;;;0.55;68.24;101119.59;5088158;28;20829;-65
2022/02/06 03:46:14;;;;;;;;;;;;;;;0.56;68.21;101109.91;5097974;28;19916;-65
2022/02/06 03:48:50;;;;;;;;;;;;;;;0.56;68.42;101113.44;5105955;28;19930;-65
2022/02/06 03:51:29;;;;;;;;;;;;;;;0.59;68.35;101104.53;5097773;28;19916;-65
2022/02/06 03:53:54;;;;;;;;;;;;;;;0.56;68.14;101099.34;5104672;28;20328;-65
2022/02/06 03:56:21;;;;;;;;;;;;;;;0.58;68.67;101103.66;5099507;28;19942;-65
2022/02/06 03:58:46;;;;;;;;;;;;;;;0.56;68.46;101105.50;5092299;28;19964;-64
2022/02/06 04:01:12;;;;;;;;;;;;;;;0.59;68.55;101099.25;5092004;28;19916;-64
2022/02/06 04:03:37;;;;;;;;;;;;;;;0.56;68.42;101104.63;5088027;28;19912;-65
2022/02/06 04:06:02;;;;;;;;;;;;;;;0.58;68.17;101095.75;5089673;28;19912;-64
2022/02/06 04:08:30;;;;;;;;;;;;;;;0.57;68.50;101094.03;5108660;28;20303;-64
2022/02/06 04:10:57;;;;;;;;;;;;;;;0.59;68.02;101086.94;5099874;28;19999;-65
2022/02/06 04:13:24;;;;;;;;;;;;;;;0.60;68.17;101095.69;5106419;28;19915;-64
2022/02/06 04:15:57;;;;;;;;;;;;;;;0.60;67.75;101090.41;5109286;28;19923;-64
2022/02/06 04:19:18;;;;;;;;;;;;;;;0.59;68.43;101086.94;5109499;28;19917;-64
2022/02/06 04:21:08;;;;;;;;;;;;;;;0.60;68.11;101093.06;5086995;28;19911;-65
2022/02/06 04:23:33;;;;;;;;;;;;;;;0.59;67.81;101088.69;5089473;28;19915;-65
2022/02/06 04:25:59;;;;;;;;;;;;;;;0.59;67.77;101086.06;5102598;28;20394;-66
2022/02/06 04:28:24;;;;;;;;;;;;;;;0.58;67.92;101082.56;5102223;28;20739;-67
2022/02/06 04:30:49;;;;;;;;;;;;;;;0.59;67.61;101079.03;5103090;28;19920;-66
2022/02/06 04:33:15;;;;;;;;;;;;;;;0.60;67.79;101072.81;5098747;28;19972;-66
2022/02/06 04:35:40;;;;;;;;;;;;;;;0.59;67.85;101079.03;5102448;28;19955;-66
2022/02/06 05:26:38;;;;;;;;;;;;;;;0.65;66.82;101033.94;5091095;28;19924;-67
2022/02/06 05:33:56;;;;;;;;;;;;;;;0.65;66.78;101019.88;5107401;28;20049;-67
2022/02/06 05:36:23;;;;;;;;;;;;;;;0.63;66.92;101024.31;5092808;28;19915;-66
2022/02/06 05:38:49;;;;;;;;;;;;;;;0.64;67.09;101023.44;5105612;28;20011;-66
2022/02/06 05:41:14;;;;;;;;;;;;;;;0.61;67.18;101018.25;5103606;28;20383;-66
2022/02/06 05:43:40;;;;;;;;;;;;;;;0.59;67.25;101015.69;5093689;28;19941;-67
2022/02/06 05:46:05;;;;;;;;;;;;;;;0.59;67.26;101015.69;5097299;28;19912;-66
2022/02/06 05:48:30;;;;;;;;;;;;;;;0.59;67.39;101004.25;5093608;28;19919;-67
2022/02/06 05:50:56;;;;;;;;;;;;;;;0.63;67.10;101009.38;5105933;28;20000;-66
2022/02/06 05:53:21;;;;;;;;;;;;;;;0.62;67.55;101007.66;5100423;28;20057;-67
2022/02/06 05:55:46;;;;;;;;;;;;;;;0.62;67.17;101007.66;5095735;28;19916;-67
2022/02/06 05:58:12;;;;;;;;;;;;;;;0.63;67.22;101005.84;5095187;28;19923;-67
2022/02/06 06:00:37;;;;;;;;;;;;;;;0.65;67.01;101004.03;5096813;28;19920;-67
2022/02/06 06:03:04;;;;;;;;;;;;;;;0.65;66.65;101010.19;5089119;28;19920;-67
2022/02/06 06:05:30;;;;;;;;;;;;;;;0.70;67.01;101016.13;5095949;28;19923;-67
2022/02/06 06:07:55;;;;;;;;;;;;;;;0.76;66.31;101021.19;5102235;28;19915;-67
2022/02/06 06:10:20;;;;;;;;;;;;;;;0.77;66.12;101015.00;5091023;28;20372;-67
2022/02/06 06:12:46;;;;;;;;;;;;;;;0.81;66.39;101013.94;5094513;28;20010;-67
2022/02/06 06:15:11;;;;;;;;;;;;;;;0.80;66.22;101014.88;5090291;28;19919;-67
2022/02/06 06:17:37;;;;;;;;;;;;;;;0.82;66.28;101013.06;5102503;28;19912;-66
2022/02/06 06:20:05;;;;;;;;;;;;;;;0.81;66.15;101013.94;5096122;28;19916;-68
2022/02/06 06:22:30;;;;;;;;;;;;;;;0.83;66.66;101014.78;5094501;27;20376;-67
2022/02/06 06:24:57;;;;;;;;;;;;;;;0.87;66.63;101019.00;5104756;28;19918;-67
2022/02/06 06:27:23;;;;;;;;;;;;;;;0.90;66.01;101018.91;5094105;28;19916;-67
2022/02/06 06:29:48;;;;;;;;;;;;;;;0.91;66.32;101023.28;5103221;28;19923;-67
2022/02/06 06:32:14;;;;;;;;;;;;;;;0.95;66.55;101018.72;5100342;28;20451;-67
2022/02/06 06:34:39;;;;;;;;;;;;;;;1.00;66.08;101017.63;5091084;28;20388;-66
2022/02/06 06:37:05;;;;;;;;;;;;;;;1.03;65.98;101017.53;5107653;28;19908;-66
2022/02/06 06:39:40;;;;;;;;;;;;;;;1.05;65.36;101014.81;5088060;28;20372;-65
2022/02/06 06:42:06;;;;;;;;;;;;;;;1.12;65.77;101021.59;5096079;28;19919;-64
2022/02/06 06:44:32;;;;;;;;;;;;;;;1.16;65.14;101013.50;5106617;28;20363;-65
2022/02/06 06:46:57;;;;;;;;;;;;;;;1.18;65.06;101011.66;5101052;28;19912;-65
2022/02/06 06:49:23;;;;;;;;;;;;;;;1.23;64.78;101009.69;5099541;28;20716;-65
2022/02/06 06:51:48;;;;;;;;;;;;;;;1.28;64.65;101007.75;5108379;28;19922;-65
2022/02/06 06:54:18;;;;;;;;;;;;;;;1.32;64.48;101013.78;5095580;28;19965;-65
2022/02/06 06:57:21;;;;;;;;;;;;;;;1.40;64.30;101023.13;5096056;28;19924;-65
2022/02/06 07:04:48;;;;;;;;;;;;;;;1.60;63.13;101007.31;5103599;28;20524;-66
2022/02/06 07:07:13;;;;;;;;;;;;;;;1.63;63.42;101009.84;5104261;28;19958;-65
2022/02/06 07:09:39;;;;;;;;;;;;;;;1.67;63.47;101011.44;5089352;28;19915;-66
2022/02/06 07:12:06;;;;;;;;;;;;;;;1.74;63.16;101007.63;5100171;28;19916;-65
2022/02/06 07:14:32;;;;;;;;;;;;;;;1.79;63.05;101000.38;5108257;28;19998;-65
2022/02/06 07:16:57;;;;;;;;;;;;;;;1.84;62.54;100997.53;5105274;28;19995;-65
2022/02/06 07:19:22;;;;;;;;;;;;;;;1.90;62.81;101000.78;5110297;28;19946;-65
2022/02/06 07:21:48;;;;;;;;;;;;;;;1.98;62.16;101006.63;5089067;28;19920;-65
2022/02/06 07:24:15;;;;;;;;;;;;;;;2.04;61.94;101008.13;5098324;28;20338;-65
2022/02/06 07:26:41;;;;;;;;;;;;;;;2.12;61.85;100998.06;5102218;28;20265;-65
2022/02/06 07:29:06;;;;;;;;;;;;;;;2.05;61.21;100983.41;5110213;28;19926;-67
2022/02/06 07:31:34;;;;;;;;;;;;;;;2.20;61.10;101007.41;5096718;28;19912;-65
2022/02/06 07:33:59;;;;;;;;;;;;;;;2.25;61.20;100999.28;5085603;28;19919;-65
2022/02/06 07:36:24;;;;;;;;;;;;;;;2.33;60.96;100997.19;5096491;28;19916;-65
2022/02/06 07:38:50;;;;;;;;;;;;;;;2.39;60.86;100995.09;5100869;28;20378;-65
2022/02/06 07:41:15;;;;;;;;;;;;;;;2.48;60.87;100999.13;5103388;28;19915;-66
2022/02/06 07:43:40;;;;;;;;;;;;;;;2.59;59.91;100996.03;5104018;28;19911;-65
2022/02/06 07:46:11;;;;;;;;;;;;;;;2.70;59.51;100994.59;5086059;28;19912;-65
2022/02/06 07:48:37;;;;;;;;;;;;;;;2.77;59.35;100984.63;5103345;28;20379;-65
2022/02/06 07:51:05;;;;;;;;;;;;;;;2.86;59.68;100992.13;5107222;28;19912;-66
2022/02/06 07:53:30;;;;;;;;;;;;;;;2.96;58.68;100986.34;5105841;28;20360;-65
2022/02/06 07:55:56;;;;;;;;;;;;;;;3.04;58.70;100991.28;5103189;28;19951;-65
2022/02/06 07:58:21;;;;;;;;;;;;;;;3.09;58.45;100991.94;5105522;28;19915;-65
2022/02/06 08:00:47;;;;;;;;;;;;;;;3.14;58.36;100981.97;5098181;28;19911;-65
2022/02/06 08:03:15;;;;;;;;;;;;;;;3.25;58.38;100980.53;5103592;28;19912;-65
2022/02/06 08:05:40;;;;;;;;;;;;;;;3.29;58.24;100971.50;5084277;28;19922;-65
2022/02/06 08:08:13;;;;;;;;;;;;;;;3.39;58.02;100974.59;5096113;28;20010;-65
2022/02/06 08:10:39;;;;;;;;;;;;;;;3.50;57.39;100966.97;5097608;28;20026;-65
2022/02/06 08:13:25;;;;;;;;;;;;;;;3.56;57.68;100964.00;5096189;28;20444;-65
2022/02/06 08:15:50;;;;;;;;;;;;;;;3.67;57.12;100965.19;5099179;28;19995;-65
2022/02/06 08:18:15;;;;;;;;;;;;;;;3.82;56.84;100955.63;5095318;28;19999;-66
2022/02/06 08:20:41;;;;;;;;;;;;;;;3.84;56.24;100949.28;5097568;28;20015;-65
2022/02/06 08:23:06;;;;;;;;;;;;;;;3.92;56.18;100943.63;5093607;28;20428;-65
2022/02/06 08:25:33;;;;;;;;;;;;;;;3.98;55.98;100946.81;5082895;28;19911;-65
2022/02/06 08:27:58;;;;;;;;;;;;;;;4.05;55.94;100958.84;5087903;28;19912;-65
2022/02/06 08:30:24;;;;;;;;;;;;;;;4.17;55.45;100950.25;5089522;28;20007;-66
2022/02/06 08:32:49;;;;;;;;;;;;;;;4.25;55.04;100956.00;5097758;28;19969;-65
2022/02/06 08:35:15;;;;;;;;;;;;;;;4.35;54.97;100948.41;5087628;28;20639;-66
2022/02/06 08:37:40;;;;;;;;;;;;;;;4.40;54.62;100954.34;5089662;28;19916;-66
2022/02/06 08:40:12;;;;;;;;;;;;;;;4.46;54.88;100946.91;5107836;28;20010;-66
2022/02/06 08:42:37;;;;;;;;;;;;;;;4.61;54.79;100953.22;5087179;28;19919;-66
2022/02/06 08:45:04;;;;;;;;;;;;;;;4.69;54.20;100954.53;5105443;28;19907;-66
2022/02/06 08:47:30;;;;;;;;;;;;;;;4.77;54.38;100940.81;5094828;28;20261;-66
2022/02/06 08:49:56;;;;;;;;;;;;;;;4.90;54.28;100935.72;5098052;28;19933;-65
2022/02/06 08:52:21;;;;;;;;;;;;;;;4.96;53.85;100938.03;5090205;28;19916;-66
2022/02/06 08:54:47;;;;;;;;;;;;;;;5.04;53.71;100931.34;5085817;28;19912;-65
2022/02/06 08:57:25;;;;;;;;;;;;;;;5.12;53.89;100931.78;5086018;28;20399;-65
2022/02/06 08:59:50;;;;;;;;;;;;;;;5.21;53.61;100931.25;5092371;28;20273;-66
2022/02/06 09:02:16;;;;;;;;;;;;;;;5.32;53.54;100936.00;5085232;28;19923;-66
2022/02/06 09:04:42;;;;;;;;;;;;;;;5.50;52.91;100935.78;5094606;28;19919;-65
2022/02/06 09:07:08;;;;;;;;;;;;;;;5.62;52.58;100937.75;5094348;28;19911;-66
2022/02/06 09:09:34;;;;;;;;;;;;;;;5.68;52.26;100921.41;5088355;28;19919;-66
2022/02/06 09:12:00;;;;;;;;;;;;;;;5.79;51.79;100924.31;5104488;28;19907;-66
2022/02/06 09:14:27;;;;;;;;;;;;;;;5.87;51.78;100919.41;5088116;28;19926;-66
2022/02/06 09:16:52;;;;;;;;;;;;;;;5.98;51.34;100910.81;5084846;28;19961;-66
2022/02/06 09:19:18;;;;;;;;;;;;;;;6.06;51.36;100913.88;5096273;28;20002;-66
2022/02/06 09:21:44;;;;;;;;;;;;;;;6.13;51.31;100913.41;5107257;28;20328;-66
2022/02/06 09:24:09;;;;;;;;;;;;;;;6.21;50.96;100907.63;5096523;28;19922;-65
2022/02/06 09:26:36;;;;;;;;;;;;;;;6.24;51.40;100897.66;5087433;28;19916;-66
2022/02/06 09:29:01;;;;;;;;;;;;;;;6.32;51.68;100900.69;5092541;28;20535;-65
2022/02/06 09:31:27;;;;;;;;;;;;;;;6.39;51.68;100899.34;5100575;28;19916;-66
2022/02/06 09:36:18;;;;;;;;;;;;;;;6.65;50.86;100897.75;5092428;28;20009;-65
2022/02/06 09:38:44;;;;;;;;;;;;;;;6.74;50.32;100890.03;5102141;28;20619;-66
2022/02/06 09:41:09;;;;;;;;;;;;;;;6.79;50.16;100890.59;5098415;28;19919;-66
2022/02/06 09:43:35;;;;;;;;;;;;;;;6.88;50.49;100881.16;5099467;28;19927;-66
2022/02/06 09:46:03;;;;;;;;;;;;;;;7.03;49.69;100878.38;5089939;28;19912;-66
2022/02/06 09:48:30;;;;;;;;;;;;;;;7.18;49.48;100878.31;5102969;28;20135;-66
2022/02/06 09:50:56;;;;;;;;;;;;;;;7.36;49.30;100867.31;5089179;28;19951;-66
2022/02/06 09:53:21;;;;;;;;;;;;;;;7.47;48.66;100854.13;5095634;28;19955;-66
2022/02/06 09:55:47;;;;;;;;;;;;;;;7.58;48.08;100858.75;5094743;28;19916;-67
2022/02/06 10:00:38;;;;;;;;;;;;;;;7.57;47.73;100849.00;5092452;28;19947;-66
2022/02/06 10:03:05;;;;;;;;;;;;;;;7.63;47.40;100845.94;5090066;28;19951;-66
2022/02/06 10:05:35;;;;;;;;;;;;;;;7.80;45.46;100830.47;5093872;28;19954;-66
2022/02/06 10:08:25;;;;;;;;;;;;;;;7.84;45.96;100831.97;5102802;27;19915;-66
2022/02/06 10:11:09;;;;;;;;;;;;;;;7.91;45.07;100824.41;5089168;28;19922;-67
2022/02/06 10:13:36;;;;;;;;;;;;;;;8.02;44.38;100819.16;5091178;28;20318;-66
2022/02/06 10:16:02;;;;;;;;;;;;;;;8.18;44.13;100818.00;5102003;28;19965;-66
2022/02/06 10:18:28;;;;;;;;;;;;;;;8.33;43.51;100805.41;5089914;28;20371;-66
2022/02/06 10:20:54;;;;;;;;;;;;;;;8.48;43.65;100804.34;5096780;28;19922;-66
2022/02/06 10:23:34;;;;;;;;;;;;;;;8.59;43.25;100791.91;5087384;28;19912;-66
2022/02/06 10:26:11;;;;;;;;;;;;;;;8.68;42.85;100795.75;5090999;28;19911;-66
2022/02/06 10:28:42;;;;;;;;;;;;;;;8.71;42.36;100776.81;5102851;28;19964;-66
2022/02/06 10:31:07;;;;;;;;;;;;;;;8.72;42.62;100776.69;5105195;28;19915;-66
2022/02/06 10:33:44;;;;;;;;;;;;;;;8.72;41.88;100770.47;5088760;28;19942;-66
2022/02/06 10:36:09;;;;;;;;;;;;;;;8.84;41.54;100758.88;5096945;28;20317;-66
2022/02/06 10:38:34;;;;;;;;;;;;;;;8.93;41.00;100758.19;5106030;28;19969;-66
2022/02/06 10:41:13;;;;;;;;;;;;;;;8.92;40.95;100751.13;5108187;28;20002;-66
2022/02/06 10:43:58;;;;;;;;;;;;;;;9.04;40.69;100750.22;5093370;28;19916;-66
2022/02/06 10:46:25;;;;;;;;;;;;;;;9.09;41.00;100753.41;5089570;28;19969;-66
2022/02/06 10:48:52;;;;;;;;;;;;;;;9.19;40.60;100743.72;5095359;28;20113;-66
2022/02/06 10:51:36;;;;;;;;;;;;;;;9.22;40.51;100730.09;5088693;28;19916;-67
2022/02/06 10:54:02;;;;;;;;;;;;;;;9.40;39.86;100730.53;5091559;28;19919;-67
2022/02/06 10:56:27;;;;;;;;;;;;;;;9.56;39.78;100725.72;5086682;28;20404;-66
2022/02/06 10:58:59;;;;;;;;;;;;;;;9.74;38.75;100716.25;5098381;28;19923;-67
2022/02/06 11:01:26;;;;;;;;;;;;;;;9.77;38.75;100714.19;5088967;28;20013;-67
2022/02/06 11:04:07;;;;;;;;;;;;;;;9.76;38.70;100700.91;5089324;28;20425;-66
2022/02/06 11:06:43;;;;;;;;;;;;;;;9.81;38.91;100693.38;5109491;28;19915;-68
2022/02/06 11:09:22;;;;;;;;;;;;;;;9.89;39.22;100688.25;5109455;27;20265;-66
2022/02/06 11:11:47;;;;;;;;;;;;;;;9.95;38.34;100677.91;5092251;28;19992;-66
2022/02/06 11:14:16;;;;;;;;;;;;;;;9.98;38.68;100675.00;5096244;28;19915;-67
2022/02/06 11:16:42;;;;;;;;;;;;;;;10.03;38.81;100682.66;5109917;28;19968;-66
2022/02/06 11:19:17;;;;;;;;;;;;;;;10.06;39.18;100664.53;5109008;28;19926;-66
2022/02/06 11:21:42;;;;;;;;;;;;;;;10.18;38.58;100671.59;5092877;28;19919;-66
2022/02/06 11:24:10;;;;;;;;;;;;;;;10.15;38.43;100654.91;5087478;28;19912;-66
2022/02/06 11:26:35;;;;;;;;;;;;;;;10.19;38.38;100651.84;5096718;28;20356;-66
2022/02/06 11:29:02;;;;;;;;;;;;;;;10.22;38.60;100645.41;5078833;28;19907;-64
2022/02/06 11:31:29;;;;;;;;;;;;;;;10.20;38.49;100639.31;5085506;28;19984;-64
2022/02/06 11:33:55;;;;;;;;;;;;;;;10.22;38.83;100634.69;5099290;28;19924;-65
2022/02/06 11:43:00;;;;;;;;;;;;;;;10.16;39.03;100619.94;5097815;28;19919;-65
2022/02/06 11:45:00;;;;;;;;;;;;;;;10.33;38.82;100602.47;5094133;28;19927;-66
2022/02/06 11:47:29;;;;;;;;;;;;;;;10.36;38.73;100602.22;5102081;27;20019;-66
2022/02/06 11:50:04;;;;;;;;;;;;;;;10.33;39.03;100591.75;5098080;28;19916;-66
2022/02/06 11:52:53;;;;;;;;;;;;;;;10.46;38.76;100595.13;5092726;28;19924;-66
2022/02/06 11:55:33;;;;;;;;;;;;;;;10.43;39.18;100590.88;5092038;28;19915;-66
2022/02/06 11:58:17;;;;;;;;;;;;;;;10.47;39.31;100580.72;5093170;28;19994;-66
2022/02/06 12:00:43;;;;;;;;;;;;;;;10.49;39.46;100568.91;5087005;28;19998;-65
2022/02/06 12:03:14;;;;;;;;;;;;;;;10.59;39.66;100566.31;5096152;28;19990;-66
2022/02/06 12:05:58;;;;;;;;;;;;;;;10.70;39.51;100552.81;5092216;28;20344;-66
2022/02/06 12:08:23;;;;;;;;;;;;;;;10.87;38.67;100547.72;5084580;28;19918;-66
2022/02/06 12:10:58;;;;;;;;;;;;;;;10.84;38.95;100547.16;5080810;28;19912;-66
2022/02/06 12:13:30;;;;;;;;;;;;;;;10.85;39.58;100544.34;5096677;28;19915;-66
2022/02/06 12:15:57;;;;;;;;;;;;;;;10.88;39.38;100530.69;5081397;28;20006;-66
2022/02/06 12:18:24;;;;;;;;;;;;;;;10.92;39.01;100524.06;5084574;28;19918;-65
2022/02/06 12:20:50;;;;;;;;;;;;;;;10.93;39.21;100522.22;5081440;28;19916;-66
2022/02/06 12:23:34;;;;;;;;;;;;;;;11.02;38.76;100522.28;5100497;28;19923;-66
2022/02/06 12:26:00;;;;;;;;;;;;;;;11.02;38.58;100514.22;5081434;28;19912;-65
2022/02/06 12:28:28;;;;;;;;;;;;;;;11.02;38.74;100500.81;5080523;28;19922;-66
2022/02/06 12:30:55;;;;;;;;;;;;;;;10.94;38.56;100502.47;5094266;28;19955;-66
2022/02/06 12:38:37;;;;;;;;;;;;;;;10.99;38.79;100490.34;5100909;28;19977;-69
2022/02/06 12:41:23;;;;;;;;;;;;;;;11.00;38.88;100491.19;5091602;28;19954;-69
2022/02/06 12:43:55;;;;;;;;;;;;;;;11.02;38.87;100473.97;5092276;28;19923;-69
2022/02/06 12:46:21;;;;;;;;;;;;;;;11.00;39.19;100477.78;5100563;28;19920;-69
2022/02/06 12:48:47;;;;;;;;;;;;;;;11.02;39.26;100476.66;5086103;28;19990;-69
2022/02/06 12:51:12;;;;;;;;;;;;;;;10.99;39.51;100465.31;5087301;28;20415;-68
2022/02/06 12:53:37;;;;;;;;;;;;;;;10.97;39.86;100454.72;5096081;28;19916;-69
2022/02/06 12:56:03;;;;;;;;;;;;;;;10.99;39.34;100462.63;5093630;28;20006;-69
2022/02/06 12:58:28;;;;;;;;;;;;;;;10.96;40.10;100450.34;5094988;28;19912;-69
2022/02/06 13:00:55;;;;;;;;;;;;;;;11.00;39.62;100432.16;5097125;28;19911;-69
2022/02/06 13:03:29;;;;;;;;;;;;;;;11.03;39.63;100429.22;5086247;28;19912;-69
2022/02/06 13:05:56;;;;;;;;;;;;;;;11.13;38.92;100419.34;5099375;28;19912;-69
2022/02/06 13:08:22;;;;;;;;;;;;;;;11.27;39.26;100414.47;5102314;27;19915;-69
2022/02/06 13:11:01;;;;;;;;;;;;;;;11.30;39.11;100411.50;5091769;28;19942;-69
2022/02/06 13:13:35;;;;;;;;;;;;;;;11.30;39.13;100400.75;5091382;28;19931;-69
2022/02/06 13:16:21;;;;;;;;;;;;;;;11.40;39.44;100396.25;5088685;28;19994;-69
2022/02/06 13:19:09;;;;;;;;;;;;;;;11.41;39.55;100383.66;5102243;28;19962;-68
2022/02/06 13:26:59;;;;;;;;;;;;;;;11.42;38.78;100371.94;5101239;28;19923;-69
2022/02/06 13:29:43;;;;;;;;;;;;;;;11.43;38.73;100363.75;5106457;28;19919;-68
2022/02/06 13:32:28;;;;;;;;;;;;;;;11.42;39.26;100356.66;5090152;28;19919;-69
2022/02/06 13:35:10;;;;;;;;;;;;;;;11.44;38.59;100359.22;5089205;28;19923;-69
2022/02/06 13:37:44;;;;;;;;;;;;;;;11.37;39.17;100347.34;5091358;28;19923;-69
2022/02/06 13:40:17;;;;;;;;;;;;;;;11.28;39.35;100337.44;5103191;28;19912;-69
2022/02/06 13:43:07;;;;;;;;;;;;;;;11.26;39.54;100345.63;5088016;28;20376;-69
2022/02/06 13:45:34;;;;;;;;;;;;;;;11.17;39.77;100341.09;5077853;28;19916;-69
2022/02/06 13:48:00;;;;;;;;;;;;;;;11.17;39.83;100333.03;5090111;28;19923;-69
2022/02/06 13:50:26;;;;;;;;;;;;;;;11.15;39.82;100318.03;5090894;28;19915;-69
2022/02/06 13:53:11;;;;;;;;;;;;;;;11.10;40.37;100323.00;5089412;28;19927;-69
2022/02/06 13:55:50;;;;;;;;;;;;;;;11.11;40.84;100314.81;5106278;28;19915;-69
2022/02/06 13:58:17;;;;;;;;;;;;;;;11.06;41.69;100305.47;5095152;28;19928;-69
2022/02/06 14:00:52;;;;;;;;;;;;;;;11.12;41.65;100310.25;5088796;28;19986;-69
2022/02/06 14:03:18;;;;;;;;;;;;;;;11.14;41.74;100309.16;5096687;28;19969;-69
2022/02/06 14:05:50;;;;;;;;;;;;;;;11.13;42.44;100291.34;5097592;28;19919;-69
2022/02/06 14:08:18;;;;;;;;;;;;;;;11.10;41.88;100299.66;5101438;27;19942;-68
2022/02/06 14:10:51;;;;;;;;;;;;;;;11.07;42.33;100283.84;5091006;28;20048;-69
2022/02/06 14:13:20;;;;;;;;;;;;;;;11.07;42.54;100286.53;5096732;28;19951;-69
2022/02/06 14:15:45;;;;;;;;;;;;;;;11.10;42.36;100280.88;5094237;28;19916;-69
2022/02/06 14:18:11;;;;;;;;;;;;;;;11.05;43.19;100282.28;5087955;28;20349;-69
2022/02/06 14:20:36;;;;;;;;;;;;;;;11.05;42.88;100276.91;5092036;28;20692;-69
2022/02/06 14:23:06;;;;;;;;;;;;;;;11.07;43.20;100265.06;5090770;28;20333;-69
2022/02/06 14:25:33;;;;;;;;;;;;;;;11.06;43.40;100262.53;5097073;28;20344;-68
2022/02/06 14:27:59;;;;;;;;;;;;;;;11.18;43.22;100259.56;5097256;28;20563;-68
2022/02/06 14:30:27;;;;;;;;;;;;;;;11.07;43.11;100254.31;5091377;28;19911;-66
2022/02/06 14:33:09;;;;;;;;;;;;;;;11.03;43.65;100252.06;5101038;28;19927;-68
2022/02/06 14:35:45;;;;;;;;;;;;;;;11.01;43.37;100254.91;5100841;28;19964;-67
2022/02/06 14:38:16;;;;;;;;;;;;;;;10.99;43.59;100251.50;5091176;28;19911;-68
2022/02/06 14:41:06;;;;;;;;;;;;;;;10.96;43.47;100238.34;5095082;28;19916;-68
2022/02/06 14:43:33;;;;;;;;;;;;;;;10.97;43.75;100233.84;5087159;28;20384;-68
2022/02/06 14:45:58;;;;;;;;;;;;;;;10.95;44.40;100231.28;5088922;28;19908;-68
2022/02/06 14:48:26;;;;;;;;;;;;;;;10.94;44.16;100229.56;5104914;28;20407;-69
2022/02/06 14:50:52;;;;;;;;;;;;;;;10.93;43.83;100219.84;5088321;28;19938;-69
2022/02/06 14:53:20;;;;;;;;;;;;;;;10.95;43.88;100217.03;5103258;28;19923;-68
2022/02/06 14:55:45;;;;;;;;;;;;;;;10.91;44.03;100204.88;5086003;28;19922;-69
2022/02/06 14:58:11;;;;;;;;;;;;;;;10.91;43.90;100199.50;5104839;28;19923;-68
2022/02/06 15:00:38;;;;;;;;;;;;;;;10.92;44.29;100196.69;5089944;28;19915;-68
2022/02/06 15:03:04;;;;;;;;;;;;;;;10.88;44.36;100189.91;5088805;28;19923;-68
2022/02/06 15:05:29;;;;;;;;;;;;;;;10.88;44.99;100189.91;5088054;28;19912;-68
2022/02/06 15:07:55;;;;;;;;;;;;;;;10.86;45.05;100186.50;5089083;28;20331;-68
2022/02/06 15:10:20;;;;;;;;;;;;;;;10.82;45.02;100190.47;5086097;28;19995;-69
2022/02/06 15:12:46;;;;;;;;;;;;;;;10.82;45.14;100187.78;5094643;28;19963;-68
2022/02/06 15:15:12;;;;;;;;;;;;;;;10.80;45.18;100173.66;5090145;28;20090;-68
2022/02/06 15:17:38;;;;;;;;;;;;;;;10.82;45.81;100182.41;5088693;28;19955;-68
2022/02/06 15:20:03;;;;;;;;;;;;;;;10.78;45.38;100174.78;5087395;28;19978;-68
2022/02/06 15:22:28;;;;;;;;;;;;;;;10.74;45.55;100166.16;5100614;28;20447;-68
2022/02/06 15:24:54;;;;;;;;;;;;;;;10.74;46.05;100154.59;5088595;28;19916;-68